createdAt,value
2018-07-22T00:00:37.520Z,16.87
2018-07-22T00:03:41.293Z,16.20
2018-07-22T00:06:45.036Z,16.43
2018-07-22T00:09:48.618Z,16.30
2018-07-22T00:12:52.248Z,15.30
2018-07-22T00:15:56.123Z,15.47
2018-07-22T00:18:59.713Z,14.60
2018-07-22T00:22:03.412Z,15.27
2018-07-22T00:25:07.676Z,15.13
2018-07-22T00:28:11.223Z,15.57
2018-07-22T00:31:14.952Z,14.33
2018-07-22T00:34:18.608Z,14.33
2018-07-22T00:37:22.282Z,14.80
2018-07-22T00:40:26.088Z,13.97
2018-07-22T00:43:29.911Z,15.27
2018-07-22T00:46:33.589Z,13.77
2018-07-22T00:49:37.303Z,13.50
2018-07-22T00:52:41.174Z,12.83
2018-07-22T00:55:44.707Z,13.60
2018-07-22T00:58:48.732Z,12.23
2018-07-22T01:01:52.313Z,12.07
2018-07-22T01:04:55.922Z,11.97
2018-07-22T01:07:59.482Z,12.00
2018-07-22T01:11:03.271Z,13.50
2018-07-22T01:14:07.122Z,11.50
2018-07-22T01:17:10.833Z,12.50
2018-07-22T01:20:14.422Z,13.47
2018-07-22T01:23:18.247Z,12.93
2018-07-22T01:26:21.807Z,14.17
2018-07-22T01:29:25.441Z,15.30
2018-07-22T01:32:29.096Z,14.50
2018-07-22T01:35:32.732Z,14.30
2018-07-22T01:38:36.460Z,13.40
2018-07-22T01:41:40.373Z,14.07
2018-07-22T01:44:44.054Z,14.43
2018-07-22T01:47:47.683Z,14.33
2018-07-22T01:50:51.257Z,15.73
2018-07-22T01:53:54.875Z,17.13
2018-07-22T01:56:58.502Z,19.37
2018-07-22T02:00:02.084Z,16.10
2018-07-22T02:03:05.999Z,16.20
2018-07-22T02:06:09.666Z,17.97
2018-07-22T02:09:13.338Z,18.00
2018-07-22T02:12:17.254Z,19.60
2018-07-22T02:15:21.112Z,16.70
2018-07-22T02:18:24.763Z,17.83
2018-07-22T02:21:29.483Z,17.70
2018-07-22T02:24:33.106Z,20.13
2018-07-22T02:27:36.678Z,18.40
2018-07-22T02:30:40.320Z,19.60
2018-07-22T02:33:50.549Z,19.67
2018-07-22T02:36:54.202Z,20.70
2018-07-22T02:39:57.872Z,20.27
2018-07-22T02:43:01.711Z,20.50
2018-07-22T02:46:05.418Z,19.03
2018-07-22T02:49:09.069Z,19.87
2018-07-22T02:52:12.717Z,19.67
2018-07-22T02:55:16.304Z,21.20
2018-07-22T02:58:20.002Z,19.63
2018-07-22T03:01:23.663Z,19.53
2018-07-22T03:04:27.219Z,19.40
2018-07-22T03:07:30.883Z,17.80
2018-07-22T03:10:34.615Z,18.70
2018-07-22T03:13:38.193Z,20.87
2018-07-22T03:16:41.877Z,20.23
2018-07-22T03:19:45.474Z,21.77
2018-07-22T03:22:49.099Z,21.43
2018-07-22T03:25:52.834Z,22.23
2018-07-22T03:28:56.489Z,20.73
2018-07-22T03:32:00.163Z,20.83
2018-07-22T03:35:03.804Z,23.40
2018-07-22T03:38:07.393Z,22.00
2018-07-22T03:41:11.013Z,20.83
2018-07-22T03:44:14.659Z,21.60
2018-07-22T03:47:18.303Z,22.07
2018-07-22T03:50:22.000Z,24.57
2018-07-22T03:53:25.618Z,23.57
2018-07-22T03:56:29.282Z,23.90
2018-07-22T03:59:32.830Z,23.07
2018-07-22T04:02:36.704Z,23.10
2018-07-22T04:05:40.381Z,23.90
2018-07-22T04:08:43.939Z,21.73
2018-07-22T04:11:47.496Z,20.73
2018-07-22T04:14:51.241Z,22.53
2018-07-22T04:17:54.828Z,24.03
2018-07-22T04:20:58.489Z,23.90
2018-07-22T04:24:02.230Z,22.70
2018-07-22T04:27:05.760Z,24.97
2018-07-22T04:30:09.326Z,23.47
2018-07-22T04:33:12.965Z,25.53
2018-07-22T04:36:16.546Z,24.83
2018-07-22T04:39:20.135Z,24.93
2018-07-22T04:42:23.806Z,25.23
2018-07-22T04:45:27.616Z,25.80
2018-07-22T04:48:31.384Z,24.77
2018-07-22T04:51:35.043Z,26.17
2018-07-22T04:54:38.729Z,24.37
2018-07-22T04:57:42.375Z,26.63
2018-07-22T05:00:45.926Z,25.50
2018-07-22T05:03:49.754Z,26.27
2018-07-22T05:06:53.423Z,25.70
2018-07-22T05:09:57.138Z,26.33
2018-07-22T05:13:00.776Z,25.40
2018-07-22T05:16:04.372Z,26.20
2018-07-22T05:19:08.294Z,27.57
2018-07-22T05:22:11.939Z,27.20
2018-07-22T05:25:15.624Z,26.77
2018-07-22T05:28:19.179Z,26.43
2018-07-22T05:31:22.939Z,27.43
2018-07-22T05:34:26.692Z,27.07
2018-07-22T05:37:30.385Z,27.60
2018-07-22T05:40:34.006Z,27.10
2018-07-22T05:43:37.799Z,29.17
2018-07-22T05:46:41.359Z,29.27
2018-07-22T05:49:44.979Z,29.50
2018-07-22T05:52:48.594Z,28.80
2018-07-22T05:55:52.151Z,29.17
2018-07-22T05:58:55.692Z,29.50
2018-07-22T06:01:59.397Z,30.00
2018-07-22T06:05:02.961Z,30.07
2018-07-22T06:08:06.990Z,31.50
2018-07-22T06:11:10.590Z,31.33
2018-07-22T06:14:14.279Z,30.10
2018-07-22T06:17:17.819Z,30.53
2018-07-22T06:20:21.408Z,28.87
2018-07-22T06:23:25.191Z,28.97
2018-07-22T06:26:28.985Z,29.93
2018-07-22T06:29:32.721Z,30.60
2018-07-22T06:32:36.312Z,32.03
2018-07-22T06:35:39.841Z,32.53
2018-07-22T06:38:43.531Z,30.93
2018-07-22T06:41:47.170Z,32.00
2018-07-22T06:44:50.957Z,30.93
2018-07-22T06:47:54.515Z,32.83
2018-07-22T06:50:58.117Z,31.17
2018-07-22T06:54:01.707Z,31.07
2018-07-22T06:57:05.386Z,29.30
2018-07-22T07:00:09.036Z,30.00
2018-07-22T07:03:12.682Z,32.50
2018-07-22T07:06:16.268Z,30.87
2018-07-22T07:09:19.923Z,31.67
2018-07-22T07:12:23.541Z,30.57
2018-07-22T07:15:27.152Z,27.90
2018-07-22T07:18:30.816Z,29.23
2018-07-22T07:21:34.475Z,29.97
2018-07-22T07:24:38.233Z,30.60
2018-07-22T07:27:41.863Z,29.33
2018-07-22T07:30:45.574Z,28.73
2018-07-22T07:33:49.188Z,30.70
2018-07-22T07:36:52.800Z,30.47
2018-07-22T07:39:56.556Z,28.57
2018-07-22T07:43:00.148Z,27.97
2018-07-22T07:46:03.908Z,27.17
2018-07-22T07:49:07.621Z,27.50
2018-07-22T07:52:11.259Z,25.50
2018-07-22T07:55:14.873Z,27.43
2018-07-22T07:58:18.547Z,27.33
2018-07-22T08:01:22.097Z,27.07
2018-07-22T08:04:25.826Z,26.80
2018-07-22T08:07:29.488Z,25.90
2018-07-22T08:10:33.146Z,25.60
2018-07-22T08:13:36.906Z,27.47
2018-07-22T08:16:40.573Z,26.70
2018-07-22T08:19:44.205Z,26.43
2018-07-22T08:22:47.811Z,25.37
2018-07-22T08:25:51.548Z,24.83
2018-07-22T08:29:34.297Z,25.83
2018-07-22T08:32:38.937Z,27.07
2018-07-22T08:35:42.666Z,28.10
2018-07-22T08:38:46.746Z,28.70
2018-07-22T08:41:51.176Z,29.37
2018-07-22T08:44:54.848Z,31.03
2018-07-22T08:47:58.492Z,28.63
2018-07-22T08:51:02.087Z,27.93
2018-07-22T08:54:05.921Z,26.50
2018-07-22T08:57:09.814Z,27.97
2018-07-22T09:00:13.538Z,25.07
2018-07-22T09:03:17.164Z,26.17
2018-07-22T09:06:20.879Z,25.10
2018-07-22T09:09:24.601Z,24.77
2018-07-22T09:12:28.237Z,24.30
2018-07-22T09:15:31.889Z,24.40
2018-07-22T09:18:35.705Z,26.43
2018-07-22T09:21:39.375Z,23.20
2018-07-22T09:24:43.139Z,23.20
2018-07-22T09:27:46.724Z,22.70
2018-07-22T09:30:50.464Z,23.13
2018-07-22T09:33:54.099Z,22.40
2018-07-22T09:36:57.842Z,18.10
2018-07-22T09:40:01.547Z,17.60
2018-07-22T09:43:05.152Z,16.93
2018-07-22T09:46:08.806Z,17.47
2018-07-22T09:49:12.412Z,17.07
2018-07-22T09:52:16.066Z,17.43
2018-07-22T09:55:19.753Z,17.10
2018-07-22T09:58:23.381Z,15.87
2018-07-22T10:01:26.995Z,16.33
2018-07-22T10:04:30.725Z,15.90
2018-07-22T10:07:34.303Z,14.17
2018-07-22T10:10:38.088Z,15.00
2018-07-22T10:13:41.658Z,15.60
2018-07-22T10:16:45.379Z,14.00
2018-07-22T10:19:49.005Z,13.87
2018-07-22T10:22:52.662Z,14.30
2018-07-22T10:25:56.423Z,14.90
2018-07-22T10:29:02.016Z,13.87
2018-07-22T10:32:05.947Z,13.90
2018-07-22T10:35:10.445Z,13.17
2018-07-22T10:38:17.830Z,14.63
2018-07-22T10:41:23.647Z,13.37
2018-07-22T10:44:27.295Z,13.03
2018-07-22T10:47:30.969Z,13.27
2018-07-22T10:50:35.310Z,10.80
2018-07-22T10:53:39.055Z,12.03
2018-07-22T10:56:42.833Z,12.57
2018-07-22T10:59:46.597Z,11.90
2018-07-22T11:02:50.328Z,11.87
2018-07-22T11:05:54.076Z,10.90
2018-07-22T11:08:57.744Z,11.73
2018-07-22T11:12:01.389Z,11.47
2018-07-22T11:15:06.280Z,11.40
2018-07-22T11:18:10.077Z,11.50
2018-07-22T11:21:13.786Z,10.23
2018-07-22T11:24:17.836Z,9.90
2018-07-22T11:27:21.573Z,10.20
2018-07-22T11:30:25.198Z,10.60
2018-07-22T11:33:28.896Z,9.83
2018-07-22T11:36:32.461Z,8.50
2018-07-22T11:39:36.081Z,8.87
2018-07-22T11:42:39.728Z,9.40
2018-07-22T11:45:43.350Z,9.00
2018-07-22T11:48:46.920Z,8.90
2018-07-22T11:51:50.547Z,8.20
2018-07-22T11:54:54.238Z,8.50
2018-07-22T11:57:57.866Z,9.63
2018-07-22T12:01:01.505Z,8.00
2018-07-22T12:04:05.258Z,8.80
2018-07-22T12:07:08.845Z,8.70
2018-07-22T12:10:12.425Z,9.33
2018-07-22T12:13:16.066Z,7.70
2018-07-22T12:16:19.749Z,7.00
2018-07-22T12:19:23.434Z,8.57
2018-07-22T12:22:27.150Z,7.87
2018-07-22T12:25:37.503Z,9.13
2018-07-22T12:28:43.178Z,9.63
2018-07-22T12:31:47.708Z,8.60
2018-07-22T12:35:13.854Z,9.10
2018-07-22T12:38:17.728Z,8.60
2018-07-22T12:41:21.367Z,8.70
2018-07-22T12:44:25.081Z,7.67
2018-07-22T12:47:29.767Z,7.90
2018-07-22T12:50:34.233Z,7.20
2018-07-22T12:53:37.703Z,8.00
2018-07-22T12:56:41.369Z,7.60
2018-07-22T12:59:45.000Z,7.60
2018-07-22T13:02:48.713Z,7.97
2018-07-22T13:05:52.355Z,7.17
2018-07-22T13:08:56.045Z,8.00
2018-07-22T13:11:59.766Z,8.10
2018-07-22T13:15:03.596Z,7.70
2018-07-22T13:18:07.299Z,7.60
2018-07-22T13:21:11.112Z,7.97
2018-07-22T13:24:14.926Z,7.90
2018-07-22T13:27:18.603Z,8.33
2018-07-22T13:30:22.375Z,8.37
2018-07-22T13:33:26.002Z,7.30
2018-07-22T13:36:29.652Z,7.63
2018-07-22T13:39:33.256Z,7.67
2018-07-22T13:42:36.985Z,8.07
2018-07-22T13:45:40.582Z,7.43
2018-07-22T13:48:44.231Z,6.57
2018-07-22T13:51:47.831Z,6.80
2018-07-22T13:54:51.499Z,6.97
2018-07-22T13:57:55.337Z,6.30
2018-07-22T14:00:58.901Z,6.83
2018-07-22T14:04:02.677Z,6.53
2018-07-22T14:07:06.507Z,6.13
2018-07-22T14:10:10.136Z,6.60
2018-07-22T14:13:13.836Z,6.70
2018-07-22T14:16:17.510Z,6.20
2018-07-22T14:19:21.252Z,6.67
2018-07-22T14:22:24.996Z,6.23
2018-07-22T14:25:28.836Z,6.50
2018-07-22T14:28:32.490Z,6.23
2018-07-22T14:31:36.261Z,5.77
2018-07-22T14:34:39.911Z,6.73
2018-07-22T14:37:43.619Z,6.57
2018-07-22T14:40:47.341Z,5.70
2018-07-22T14:43:51.055Z,6.30
2018-07-22T14:46:54.801Z,6.40
2018-07-22T14:50:01.285Z,6.40
2018-07-22T14:53:04.971Z,6.40
2018-07-22T14:56:08.625Z,6.17
2018-07-22T14:59:12.363Z,6.37
2018-07-22T15:02:16.044Z,6.10
2018-07-22T15:05:19.947Z,5.83
2018-07-22T15:08:23.735Z,5.87
2018-07-22T15:11:27.298Z,5.67
2018-07-22T15:14:31.075Z,5.90
2018-07-22T15:17:34.676Z,5.70
2018-07-22T15:20:38.312Z,5.70
2018-07-22T15:23:42.140Z,5.50
2018-07-22T15:26:45.813Z,5.77
2018-07-22T15:29:49.507Z,6.13
2018-07-22T15:32:53.293Z,5.70
2018-07-22T15:35:56.894Z,5.77
2018-07-22T15:39:00.712Z,6.30
2018-07-22T15:42:04.353Z,5.63
2018-07-22T15:45:07.995Z,6.13
2018-07-22T15:48:11.842Z,5.53
2018-07-22T15:51:15.415Z,5.50
2018-07-22T15:54:19.111Z,6.13
2018-07-22T15:57:22.801Z,6.30
2018-07-22T16:00:26.432Z,5.90
2018-07-22T16:03:30.062Z,5.73
2018-07-22T16:06:33.732Z,5.77
2018-07-22T16:09:37.557Z,5.47
2018-07-22T16:12:41.190Z,5.83
2018-07-22T16:15:44.924Z,5.40
2018-07-22T16:18:48.610Z,5.80
2018-07-22T16:21:59.641Z,5.70
2018-07-22T16:25:04.690Z,6.03
2018-07-22T16:28:08.443Z,5.70
2018-07-22T16:31:12.100Z,5.97
2018-07-22T16:34:16.581Z,5.60
2018-07-22T16:37:20.279Z,5.97
2018-07-22T16:40:24.056Z,5.30
2018-07-22T16:43:27.764Z,5.67
2018-07-22T16:46:31.324Z,5.10
2018-07-22T16:49:34.924Z,5.27
2018-07-22T16:52:38.523Z,5.23
2018-07-22T16:55:42.189Z,4.93
2018-07-22T16:58:45.885Z,4.97
2018-07-22T17:01:49.636Z,5.13
2018-07-22T17:04:53.365Z,5.00
2018-07-22T17:07:57.101Z,4.90
2018-07-22T17:11:00.759Z,5.00
2018-07-22T17:14:04.484Z,4.77
2018-07-22T17:17:08.185Z,4.50
2018-07-22T17:20:11.847Z,4.40
2018-07-22T17:23:15.721Z,4.43
2018-07-22T17:26:19.473Z,4.83
2018-07-22T17:29:23.214Z,4.60
2018-07-22T17:32:26.841Z,4.80
2018-07-22T17:35:30.672Z,4.67
2018-07-22T17:38:34.435Z,4.70
2018-07-22T17:41:38.786Z,4.70
2018-07-22T17:44:42.508Z,4.70
2018-07-22T17:47:46.185Z,4.60
2018-07-22T17:50:49.825Z,5.03
2018-07-22T17:53:53.707Z,4.77
2018-07-22T17:56:57.428Z,5.07
2018-07-22T18:00:01.138Z,4.77
2018-07-22T18:03:26.608Z,4.83
2018-07-22T18:06:30.334Z,4.73
2018-07-22T18:09:34.102Z,4.60
2018-07-22T18:12:37.768Z,4.83
2018-07-22T18:15:41.391Z,4.87
2018-07-22T18:18:45.272Z,5.17
2018-07-22T18:21:48.814Z,4.43
2018-07-22T18:24:52.714Z,4.20
2018-07-22T18:27:56.365Z,4.30
2018-07-22T18:31:00.154Z,5.10
2018-07-22T18:34:03.826Z,4.80
2018-07-22T18:37:07.832Z,4.90
2018-07-22T18:40:11.437Z,4.60
2018-07-22T18:43:15.338Z,5.03
2018-07-22T18:46:19.028Z,5.13
2018-07-22T18:49:22.915Z,4.57
2018-07-22T18:52:27.072Z,5.30
2018-07-22T18:55:30.964Z,5.07
2018-07-22T18:58:35.120Z,4.90
2018-07-22T19:01:39.117Z,5.30
2018-07-22T19:04:42.841Z,4.70
2018-07-22T19:07:46.918Z,5.33
2018-07-22T19:10:50.994Z,5.30
2018-07-22T19:13:55.060Z,5.10
2018-07-22T19:16:59.139Z,5.00
2018-07-22T19:20:03.093Z,5.60
2018-07-22T19:23:07.098Z,5.47
2018-07-22T19:26:11.173Z,5.40
2018-07-22T19:29:15.185Z,4.77
2018-07-22T19:32:19.173Z,5.40
2018-07-22T19:35:23.137Z,5.37
2018-07-22T19:38:27.112Z,5.03
2018-07-22T19:41:31.095Z,5.10
2018-07-22T19:44:35.272Z,5.83
2018-07-22T19:47:39.349Z,6.07
2018-07-22T19:50:43.306Z,4.90
2018-07-22T19:53:47.238Z,5.10
2018-07-22T19:56:51.306Z,5.67
2018-07-22T19:59:55.344Z,5.93
2018-07-22T20:02:59.266Z,6.57
2018-07-22T20:06:03.341Z,5.70
2018-07-22T20:09:08.615Z,6.10
2018-07-22T20:12:12.595Z,5.43
2018-07-22T20:15:16.525Z,6.77
2018-07-22T20:18:20.558Z,5.63
2018-07-22T20:21:24.625Z,5.93
2018-07-22T20:24:28.844Z,6.30
2018-07-22T20:27:32.464Z,5.90
2018-07-22T20:30:36.346Z,5.90
2018-07-22T20:33:40.374Z,5.80
2018-07-22T20:36:44.121Z,6.60
2018-07-22T20:39:48.213Z,6.77
2018-07-22T20:42:51.946Z,6.30
2018-07-22T20:45:55.574Z,5.50
2018-07-22T20:48:59.392Z,6.47
2018-07-22T20:52:03.284Z,6.40
2018-07-22T20:55:07.026Z,6.40
2018-07-22T20:58:10.966Z,6.30
2018-07-22T21:01:14.675Z,6.30
2018-07-22T21:04:18.390Z,6.80
2018-07-22T21:07:22.055Z,5.80
2018-07-22T21:10:25.726Z,5.90
2018-07-22T21:13:29.354Z,6.40
2018-07-22T21:16:33.090Z,6.20
2018-07-22T21:19:36.771Z,5.80
2018-07-22T21:22:40.508Z,6.27
2018-07-22T21:25:44.247Z,6.90
2018-07-22T21:28:47.950Z,6.10
2018-07-22T21:31:51.676Z,6.43
2018-07-22T21:34:55.315Z,6.30
2018-07-22T21:37:59.096Z,5.57
2018-07-22T21:41:02.866Z,6.17
2018-07-22T21:44:06.532Z,6.07
2018-07-22T21:47:10.676Z,6.17
2018-07-22T21:50:14.223Z,5.80
2018-07-22T21:53:17.913Z,5.70
2018-07-22T21:56:21.514Z,6.40
2018-07-22T21:59:25.117Z,5.70
2018-07-22T22:02:32.815Z,6.23
2018-07-22T22:05:36.493Z,6.80
2018-07-22T22:08:40.085Z,6.23
2018-07-22T22:11:43.968Z,5.90
2018-07-22T22:14:47.652Z,6.10
2018-07-22T22:17:51.527Z,5.97
2018-07-22T22:20:55.342Z,6.00
2018-07-22T22:23:59.266Z,6.20
2018-07-22T22:27:02.911Z,6.00
2018-07-22T22:30:06.562Z,5.90
2018-07-22T22:33:10.206Z,6.00
2018-07-22T22:36:13.857Z,5.90
2018-07-22T22:39:17.575Z,6.00
2018-07-22T22:42:21.155Z,6.00
2018-07-22T22:45:24.860Z,6.10
2018-07-22T22:48:28.436Z,6.13
2018-07-22T22:51:32.189Z,5.57
2018-07-22T22:54:35.816Z,5.53
2018-07-22T22:57:39.896Z,6.00
2018-07-22T23:00:43.520Z,5.73
2018-07-22T23:03:47.291Z,5.50
2018-07-22T23:06:50.887Z,5.70
2018-07-22T23:09:54.454Z,5.80
2018-07-22T23:12:58.256Z,5.67
2018-07-22T23:16:01.835Z,5.30
2018-07-22T23:19:05.736Z,5.60
2018-07-22T23:22:09.422Z,5.60
2018-07-22T23:25:13.231Z,5.73
2018-07-22T23:28:16.821Z,5.57
2018-07-22T23:31:20.382Z,5.70
2018-07-22T23:34:23.926Z,5.60
2018-07-22T23:37:27.492Z,5.50
2018-07-22T23:40:31.146Z,5.30
2018-07-22T23:43:34.755Z,5.70
2018-07-22T23:46:38.410Z,6.10
2018-07-22T23:49:41.957Z,5.63
2018-07-22T23:52:45.770Z,5.97
2018-07-22T23:55:49.450Z,6.27
2018-07-22T23:58:53.030Z,5.70
